sensor_id;sensor_type;location;lat;lon;timestamp;P1;durP1;ratioP1;P2;durP2;ratioP2
43817;SDS011;29868;47.360;18.984;2022-09-14T00:01:11;7.95;;;5.25;;
43817;SDS011;29868;47.360;18.984;2022-09-14T00:03:41;8.85;;;5.55;;
43817;SDS011;29868;47.360;18.984;2022-09-14T00:06:08;8.30;;;5.22;;
43817;SDS011;29868;47.360;18.984;2022-09-14T00:08:36;8.23;;;5.47;;
43817;SDS011;29868;47.360;18.984;2022-09-14T00:11:03;7.90;;;5.10;;
43817;SDS011;29868;47.360;18.984;2022-09-14T00:13:33;6.85;;;4.80;;
43817;SDS011;29868;47.360;18.984;2022-09-14T00:16:03;8.50;;;5.30;;
43817;SDS011;29868;47.360;18.984;2022-09-14T00:18:31;9.43;;;5.35;;
43817;SDS011;29868;47.360;18.984;2022-09-14T00:20:58;7.90;;;5.18;;
43817;SDS011;29868;47.360;18.984;2022-09-14T00:23:35;7.90;;;4.85;;
43817;SDS011;29868;47.360;18.984;2022-09-14T00:26:07;6.68;;;4.78;;
43817;SDS011;29868;47.360;18.984;2022-09-14T00:28:38;7.00;;;4.72;;
43817;SDS011;29868;47.360;18.984;2022-09-14T00:31:05;8.70;;;4.80;;
43817;SDS011;29868;47.360;18.984;2022-09-14T00:33:31;7.88;;;4.90;;
43817;SDS011;29868;47.360;18.984;2022-09-14T00:36:08;7.38;;;4.32;;
43817;SDS011;29868;47.360;18.984;2022-09-14T00:38:38;8.32;;;4.70;;
43817;SDS011;29868;47.360;18.984;2022-09-14T00:41:05;8.07;;;4.93;;
43817;SDS011;29868;47.360;18.984;2022-09-14T00:43:49;8.10;;;4.43;;
43817;SDS011;29868;47.360;18.984;2022-09-14T00:46:19;5.45;;;3.85;;
43817;SDS011;29868;47.360;18.984;2022-09-14T00:48:45;9.23;;;4.88;;
43817;SDS011;29868;47.360;18.984;2022-09-14T00:51:10;7.57;;;4.65;;
43817;SDS011;29868;47.360;18.984;2022-09-14T00:53:36;6.60;;;4.20;;
43817;SDS011;29868;47.360;18.984;2022-09-14T00:56:02;7.95;;;4.18;;
43817;SDS011;29868;47.360;18.984;2022-09-14T00:58:28;6.78;;;4.15;;
43817;SDS011;29868;47.360;18.984;2022-09-14T01:00:53;6.03;;;4.15;;
43817;SDS011;29868;47.360;18.984;2022-09-14T01:03:19;6.80;;;4.57;;
43817;SDS011;29868;47.360;18.984;2022-09-14T01:05:58;7.25;;;4.38;;
43817;SDS011;29868;47.360;18.984;2022-09-14T01:11:14;7.18;;;4.38;;
43817;SDS011;29868;47.360;18.984;2022-09-14T01:14:02;5.32;;;3.67;;
43817;SDS011;29868;47.360;18.984;2022-09-14T01:16:58;6.18;;;4.00;;
43817;SDS011;29868;47.360;18.984;2022-09-14T01:19:40;7.20;;;4.20;;
43817;SDS011;29868;47.360;18.984;2022-09-14T01:22:10;6.63;;;4.45;;
43817;SDS011;29868;47.360;18.984;2022-09-14T01:24:47;6.50;;;4.20;;
43817;SDS011;29868;47.360;18.984;2022-09-14T01:27:36;6.05;;;4.10;;
43817;SDS011;29868;47.360;18.984;2022-09-14T01:32:58;6.63;;;4.15;;
43817;SDS011;29868;47.360;18.984;2022-09-14T01:35:30;6.70;;;4.57;;
43817;SDS011;29868;47.360;18.984;2022-09-14T01:38:02;6.25;;;4.20;;
43817;SDS011;29868;47.360;18.984;2022-09-14T01:40:33;6.85;;;4.38;;
43817;SDS011;29868;47.360;18.984;2022-09-14T01:43:10;7.88;;;4.78;;
43817;SDS011;29868;47.360;18.984;2022-09-14T01:45:43;6.07;;;4.30;;
43817;SDS011;29868;47.360;18.984;2022-09-14T01:48:12;8.48;;;4.80;;
43817;SDS011;29868;47.360;18.984;2022-09-14T01:50:42;8.45;;;4.88;;
43817;SDS011;29868;47.360;18.984;2022-09-14T01:53:11;6.75;;;4.28;;
43817;SDS011;29868;47.360;18.984;2022-09-14T01:55:42;7.03;;;4.75;;
43817;SDS011;29868;47.360;18.984;2022-09-14T01:58:14;8.48;;;4.43;;
43817;SDS011;29868;47.360;18.984;2022-09-14T02:00:59;6.13;;;4.10;;
43817;SDS011;29868;47.360;18.984;2022-09-14T02:03:48;7.55;;;4.68;;
43817;SDS011;29868;47.360;18.984;2022-09-14T02:06:27;6.90;;;4.50;;
43817;SDS011;29868;47.360;18.984;2022-09-14T02:08:56;7.60;;;4.53;;
43817;SDS011;29868;47.360;18.984;2022-09-14T02:11:24;8.48;;;4.60;;
43817;SDS011;29868;47.360;18.984;2022-09-14T02:13:49;6.18;;;4.43;;
43817;SDS011;29868;47.360;18.984;2022-09-14T02:16:14;7.88;;;4.40;;
43817;SDS011;29868;47.360;18.984;2022-09-14T02:18:40;6.57;;;4.80;;
43817;SDS011;29868;47.360;18.984;2022-09-14T02:21:12;7.05;;;4.50;;
43817;SDS011;29868;47.360;18.984;2022-09-14T02:23:41;8.57;;;4.30;;
43817;SDS011;29868;47.360;18.984;2022-09-14T02:26:07;9.05;;;4.57;;
43817;SDS011;29868;47.360;18.984;2022-09-14T02:28:33;6.78;;;4.13;;
43817;SDS011;29868;47.360;18.984;2022-09-14T02:33:42;6.28;;;4.35;;
43817;SDS011;29868;47.360;18.984;2022-09-14T02:39:19;9.48;;;4.45;;
43817;SDS011;29868;47.360;18.984;2022-09-14T02:50:18;6.15;;;3.95;;
43817;SDS011;29868;47.360;18.984;2022-09-14T02:55:36;5.88;;;4.20;;
43817;SDS011;29868;47.360;18.984;2022-09-14T02:58:08;5.80;;;4.03;;
43817;SDS011;29868;47.360;18.984;2022-09-14T03:00:37;6.70;;;4.00;;
43817;SDS011;29868;47.360;18.984;2022-09-14T03:03:08;6.13;;;4.10;;
43817;SDS011;29868;47.360;18.984;2022-09-14T03:05:35;8.95;;;4.57;;
43817;SDS011;29868;47.360;18.984;2022-09-14T03:08:01;6.47;;;4.25;;
43817;SDS011;29868;47.360;18.984;2022-09-14T03:10:28;8.85;;;4.22;;
43817;SDS011;29868;47.360;18.984;2022-09-14T03:12:54;11.70;;;4.32;;
43817;SDS011;29868;47.360;18.984;2022-09-14T03:15:19;7.68;;;4.30;;
43817;SDS011;29868;47.360;18.984;2022-09-14T03:17:46;6.78;;;4.40;;
43817;SDS011;29868;47.360;18.984;2022-09-14T03:20:16;6.93;;;4.53;;
43817;SDS011;29868;47.360;18.984;2022-09-14T03:22:45;7.97;;;4.25;;
43817;SDS011;29868;47.360;18.984;2022-09-14T03:25:11;7.22;;;4.43;;
43817;SDS011;29868;47.360;18.984;2022-09-14T03:27:36;6.53;;;4.28;;
43817;SDS011;29868;47.360;18.984;2022-09-14T03:30:03;8.23;;;3.78;;
43817;SDS011;29868;47.360;18.984;2022-09-14T03:32:29;6.25;;;4.15;;
43817;SDS011;29868;47.360;18.984;2022-09-14T03:34:54;6.55;;;3.92;;
43817;SDS011;29868;47.360;18.984;2022-09-14T03:37:21;5.82;;;3.80;;
43817;SDS011;29868;47.360;18.984;2022-09-14T03:39:46;6.85;;;3.97;;
43817;SDS011;29868;47.360;18.984;2022-09-14T03:42:11;6.78;;;4.50;;
43817;SDS011;29868;47.360;18.984;2022-09-14T03:44:37;8.40;;;4.40;;
43817;SDS011;29868;47.360;18.984;2022-09-14T03:47:02;7.18;;;3.95;;
43817;SDS011;29868;47.360;18.984;2022-09-14T03:49:27;8.20;;;3.97;;
43817;SDS011;29868;47.360;18.984;2022-09-14T03:51:53;8.00;;;4.63;;
43817;SDS011;29868;47.360;18.984;2022-09-14T03:54:18;5.30;;;3.65;;
43817;SDS011;29868;47.360;18.984;2022-09-14T03:56:43;5.97;;;4.07;;
43817;SDS011;29868;47.360;18.984;2022-09-14T03:59:09;7.53;;;3.88;;
43817;SDS011;29868;47.360;18.984;2022-09-14T04:01:34;6.07;;;3.65;;
43817;SDS011;29868;47.360;18.984;2022-09-14T04:04:00;5.70;;;3.90;;
43817;SDS011;29868;47.360;18.984;2022-09-14T04:06:26;5.28;;;3.70;;
43817;SDS011;29868;47.360;18.984;2022-09-14T04:08:51;6.00;;;4.00;;
43817;SDS011;29868;47.360;18.984;2022-09-14T04:11:18;6.60;;;4.10;;
43817;SDS011;29868;47.360;18.984;2022-09-14T04:13:46;5.97;;;4.07;;
43817;SDS011;29868;47.360;18.984;2022-09-14T04:16:12;8.25;;;4.20;;
43817;SDS011;29868;47.360;18.984;2022-09-14T04:18:38;7.07;;;4.60;;
43817;SDS011;29868;47.360;18.984;2022-09-14T04:21:05;9.13;;;3.92;;
43817;SDS011;29868;47.360;18.984;2022-09-14T04:23:34;8.70;;;4.40;;
43817;SDS011;29868;47.360;18.984;2022-09-14T04:26:00;7.93;;;5.45;;
43817;SDS011;29868;47.360;18.984;2022-09-14T04:28:25;9.45;;;5.28;;
43817;SDS011;29868;47.360;18.984;2022-09-14T04:30:58;8.80;;;5.05;;
43817;SDS011;29868;47.360;18.984;2022-09-14T04:33:25;9.65;;;5.18;;
43817;SDS011;29868;47.360;18.984;2022-09-14T04:35:58;7.72;;;5.07;;
43817;SDS011;29868;47.360;18.984;2022-09-14T04:38:28;8.18;;;4.47;;
43817;SDS011;29868;47.360;18.984;2022-09-14T04:40:54;9.32;;;5.20;;
43817;SDS011;29868;47.360;18.984;2022-09-14T04:43:21;9.77;;;5.55;;
43817;SDS011;29868;47.360;18.984;2022-09-14T04:45:47;7.68;;;5.32;;
43817;SDS011;29868;47.360;18.984;2022-09-14T04:48:12;8.27;;;5.22;;
43817;SDS011;29868;47.360;18.984;2022-09-14T04:50:38;9.85;;;4.75;;
43817;SDS011;29868;47.360;18.984;2022-09-14T04:53:03;6.95;;;4.30;;
43817;SDS011;29868;47.360;18.984;2022-09-14T04:55:29;6.40;;;4.07;;
43817;SDS011;29868;47.360;18.984;2022-09-14T04:57:54;6.88;;;4.63;;
43817;SDS011;29868;47.360;18.984;2022-09-14T05:00:19;7.25;;;4.53;;
43817;SDS011;29868;47.360;18.984;2022-09-14T05:02:45;9.52;;;4.47;;
43817;SDS011;29868;47.360;18.984;2022-09-14T05:05:11;9.55;;;4.45;;
43817;SDS011;29868;47.360;18.984;2022-09-14T05:07:36;8.50;;;4.53;;
43817;SDS011;29868;47.360;18.984;2022-09-14T05:10:02;7.38;;;4.35;;
43817;SDS011;29868;47.360;18.984;2022-09-14T05:12:28;6.88;;;4.60;;
43817;SDS011;29868;47.360;18.984;2022-09-14T05:14:54;6.97;;;4.63;;
43817;SDS011;29868;47.360;18.984;2022-09-14T05:17:19;7.55;;;4.65;;
43817;SDS011;29868;47.360;18.984;2022-09-14T05:19:45;7.03;;;4.22;;
43817;SDS011;29868;47.360;18.984;2022-09-14T05:22:10;4.93;;;3.65;;
43817;SDS011;29868;47.360;18.984;2022-09-14T05:24:35;7.88;;;4.18;;
43817;SDS011;29868;47.360;18.984;2022-09-14T05:27:01;8.82;;;4.13;;
43817;SDS011;29868;47.360;18.984;2022-09-14T05:29:26;9.85;;;4.65;;
43817;SDS011;29868;47.360;18.984;2022-09-14T05:31:53;6.50;;;4.38;;
43817;SDS011;29868;47.360;18.984;2022-09-14T05:34:19;7.00;;;4.20;;
43817;SDS011;29868;47.360;18.984;2022-09-14T05:36:45;8.30;;;4.32;;
43817;SDS011;29868;47.360;18.984;2022-09-14T05:39:10;8.15;;;4.30;;
43817;SDS011;29868;47.360;18.984;2022-09-14T05:41:36;6.88;;;4.30;;
43817;SDS011;29868;47.360;18.984;2022-09-14T05:44:02;7.78;;;4.13;;
43817;SDS011;29868;47.360;18.984;2022-09-14T05:46:29;7.20;;;4.32;;
43817;SDS011;29868;47.360;18.984;2022-09-14T05:48:54;5.82;;;3.85;;
43817;SDS011;29868;47.360;18.984;2022-09-14T05:51:21;6.80;;;3.83;;
43817;SDS011;29868;47.360;18.984;2022-09-14T05:53:48;9.30;;;4.10;;
43817;SDS011;29868;47.360;18.984;2022-09-14T05:56:18;7.93;;;4.32;;
43817;SDS011;29868;47.360;18.984;2022-09-14T05:58:45;8.77;;;4.00;;
43817;SDS011;29868;47.360;18.984;2022-09-14T06:01:12;6.25;;;3.88;;
43817;SDS011;29868;47.360;18.984;2022-09-14T06:03:40;6.63;;;3.72;;
43817;SDS011;29868;47.360;18.984;2022-09-14T06:06:06;9.98;;;4.20;;
43817;SDS011;29868;47.360;18.984;2022-09-14T06:08:33;7.03;;;4.03;;
43817;SDS011;29868;47.360;18.984;2022-09-14T06:11:33;5.85;;;3.67;;
43817;SDS011;29868;47.360;18.984;2022-09-14T06:13:53;7.28;;;4.18;;
43817;SDS011;29868;47.360;18.984;2022-09-14T06:16:20;9.32;;;4.40;;
43817;SDS011;29868;47.360;18.984;2022-09-14T06:18:46;8.15;;;4.28;;
43817;SDS011;29868;47.360;18.984;2022-09-14T06:21:13;7.93;;;4.30;;
43817;SDS011;29868;47.360;18.984;2022-09-14T06:23:40;6.72;;;3.80;;
43817;SDS011;29868;47.360;18.984;2022-09-14T06:26:06;7.20;;;4.40;;
43817;SDS011;29868;47.360;18.984;2022-09-14T06:28:33;10.65;;;4.05;;
43817;SDS011;29868;47.360;18.984;2022-09-14T06:30:59;6.70;;;3.83;;
43817;SDS011;29868;47.360;18.984;2022-09-14T06:33:27;8.63;;;4.18;;
43817;SDS011;29868;47.360;18.984;2022-09-14T06:35:56;7.38;;;3.90;;
43817;SDS011;29868;47.360;18.984;2022-09-14T06:38:22;6.85;;;4.10;;
43817;SDS011;29868;47.360;18.984;2022-09-14T06:40:55;8.38;;;4.30;;
43817;SDS011;29868;47.360;18.984;2022-09-14T06:43:25;8.30;;;4.35;;
43817;SDS011;29868;47.360;18.984;2022-09-14T06:45:55;9.30;;;4.40;;
43817;SDS011;29868;47.360;18.984;2022-09-14T06:48:22;9.65;;;4.60;;
43817;SDS011;29868;47.360;18.984;2022-09-14T06:50:47;9.20;;;4.72;;
43817;SDS011;29868;47.360;18.984;2022-09-14T06:53:13;6.35;;;3.95;;
43817;SDS011;29868;47.360;18.984;2022-09-14T06:55:38;8.00;;;4.30;;
43817;SDS011;29868;47.360;18.984;2022-09-14T06:58:03;7.13;;;4.05;;
43817;SDS011;29868;47.360;18.984;2022-09-14T07:00:31;12.27;;;4.38;;
43817;SDS011;29868;47.360;18.984;2022-09-14T07:02:57;9.48;;;4.03;;
43817;SDS011;29868;47.360;18.984;2022-09-14T07:05:22;9.98;;;4.38;;
43817;SDS011;29868;47.360;18.984;2022-09-14T07:07:50;10.63;;;5.13;;
43817;SDS011;29868;47.360;18.984;2022-09-14T07:10:19;6.70;;;4.25;;
43817;SDS011;29868;47.360;18.984;2022-09-14T07:12:44;7.72;;;4.38;;
43817;SDS011;29868;47.360;18.984;2022-09-14T07:15:10;8.00;;;4.93;;
43817;SDS011;29868;47.360;18.984;2022-09-14T07:17:35;7.10;;;4.60;;
43817;SDS011;29868;47.360;18.984;2022-09-14T07:20:04;8.32;;;5.00;;
43817;SDS011;29868;47.360;18.984;2022-09-14T07:22:34;9.05;;;4.85;;
43817;SDS011;29868;47.360;18.984;2022-09-14T07:25:01;9.40;;;4.35;;
43817;SDS011;29868;47.360;18.984;2022-09-14T07:27:26;10.75;;;4.68;;
43817;SDS011;29868;47.360;18.984;2022-09-14T07:29:51;8.88;;;4.30;;
43817;SDS011;29868;47.360;18.984;2022-09-14T07:32:18;8.30;;;4.55;;
43817;SDS011;29868;47.360;18.984;2022-09-14T07:34:43;7.20;;;4.47;;
43817;SDS011;29868;47.360;18.984;2022-09-14T07:37:08;9.35;;;4.45;;
43817;SDS011;29868;47.360;18.984;2022-09-14T07:39:34;7.82;;;4.57;;
43817;SDS011;29868;47.360;18.984;2022-09-14T07:42:00;5.65;;;4.10;;
43817;SDS011;29868;47.360;18.984;2022-09-14T07:44:26;8.10;;;4.75;;
43817;SDS011;29868;47.360;18.984;2022-09-14T07:46:52;8.73;;;4.70;;
43817;SDS011;29868;47.360;18.984;2022-09-14T07:49:17;8.90;;;4.45;;
43817;SDS011;29868;47.360;18.984;2022-09-14T07:51:43;7.65;;;4.70;;
43817;SDS011;29868;47.360;18.984;2022-09-14T07:54:09;9.68;;;4.65;;
43817;SDS011;29868;47.360;18.984;2022-09-14T07:56:37;8.05;;;4.50;;
43817;SDS011;29868;47.360;18.984;2022-09-14T07:59:02;9.38;;;4.30;;
43817;SDS011;29868;47.360;18.984;2022-09-14T08:01:29;8.25;;;4.70;;
43817;SDS011;29868;47.360;18.984;2022-09-14T08:03:55;7.43;;;4.10;;
43817;SDS011;29868;47.360;18.984;2022-09-14T08:06:24;10.43;;;4.43;;
43817;SDS011;29868;47.360;18.984;2022-09-14T08:08:51;8.40;;;4.40;;
43817;SDS011;29868;47.360;18.984;2022-09-14T08:11:21;9.38;;;4.68;;
43817;SDS011;29868;47.360;18.984;2022-09-14T08:13:58;10.75;;;4.65;;
43817;SDS011;29868;47.360;18.984;2022-09-14T08:16:26;10.48;;;4.93;;
43817;SDS011;29868;47.360;18.984;2022-09-14T08:18:56;8.20;;;4.97;;
43817;SDS011;29868;47.360;18.984;2022-09-14T08:21:23;9.90;;;5.10;;
43817;SDS011;29868;47.360;18.984;2022-09-14T08:23:49;9.10;;;4.70;;
43817;SDS011;29868;47.360;18.984;2022-09-14T08:26:16;6.68;;;4.60;;
43817;SDS011;29868;47.360;18.984;2022-09-14T08:28:43;10.45;;;4.88;;
43817;SDS011;29868;47.360;18.984;2022-09-14T08:33:40;9.90;;;4.93;;
43817;SDS011;29868;47.360;18.984;2022-09-14T08:36:08;8.98;;;4.85;;
43817;SDS011;29868;47.360;18.984;2022-09-14T08:38:35;8.20;;;4.63;;
43817;SDS011;29868;47.360;18.984;2022-09-14T08:41:07;8.73;;;5.22;;
43817;SDS011;29868;47.360;18.984;2022-09-14T08:43:36;9.40;;;4.57;;
43817;SDS011;29868;47.360;18.984;2022-09-14T08:46:03;8.77;;;4.95;;
43817;SDS011;29868;47.360;18.984;2022-09-14T08:48:37;7.60;;;5.20;;
43817;SDS011;29868;47.360;18.984;2022-09-14T08:51:09;10.18;;;5.68;;
43817;SDS011;29868;47.360;18.984;2022-09-14T08:53:35;6.97;;;4.75;;
43817;SDS011;29868;47.360;18.984;2022-09-14T08:56:12;8.25;;;4.43;;
43817;SDS011;29868;47.360;18.984;2022-09-14T09:07:04;9.07;;;4.95;;
43817;SDS011;29868;47.360;18.984;2022-09-14T09:15:20;9.30;;;4.75;;
43817;SDS011;29868;47.360;18.984;2022-09-14T09:17:56;10.35;;;4.82;;
43817;SDS011;29868;47.360;18.984;2022-09-14T09:20:27;6.88;;;4.35;;
43817;SDS011;29868;47.360;18.984;2022-09-14T09:23:05;8.70;;;5.30;;
43817;SDS011;29868;47.360;18.984;2022-09-14T09:25:47;6.75;;;4.10;;
43817;SDS011;29868;47.360;18.984;2022-09-14T09:28:23;6.93;;;4.03;;
43817;SDS011;29868;47.360;18.984;2022-09-14T09:30:54;7.22;;;4.00;;
43817;SDS011;29868;47.360;18.984;2022-09-14T09:33:24;7.53;;;3.88;;
43817;SDS011;29868;47.360;18.984;2022-09-14T09:35:52;5.65;;;4.22;;
43817;SDS011;29868;47.360;18.984;2022-09-14T09:38:19;7.60;;;4.20;;
43817;SDS011;29868;47.360;18.984;2022-09-14T09:40:59;8.35;;;4.38;;
43817;SDS011;29868;47.360;18.984;2022-09-14T09:43:31;9.43;;;4.35;;
43817;SDS011;29868;47.360;18.984;2022-09-14T09:46:01;7.03;;;4.10;;
43817;SDS011;29868;47.360;18.984;2022-09-14T09:48:42;6.85;;;3.80;;
43817;SDS011;29868;47.360;18.984;2022-09-14T09:51:17;6.22;;;3.85;;
43817;SDS011;29868;47.360;18.984;2022-09-14T09:54:40;6.93;;;4.10;;
43817;SDS011;29868;47.360;18.984;2022-09-14T09:57:27;6.55;;;4.15;;
43817;SDS011;29868;47.360;18.984;2022-09-14T09:59:44;6.70;;;3.60;;
43817;SDS011;29868;47.360;18.984;2022-09-14T10:07:57;6.20;;;3.95;;
43817;SDS011;29868;47.360;18.984;2022-09-14T10:10:38;5.95;;;3.88;;
43817;SDS011;29868;47.360;18.984;2022-09-14T10:16:07;7.20;;;3.95;;
43817;SDS011;29868;47.360;18.984;2022-09-14T10:18:49;6.38;;;3.70;;
43817;SDS011;29868;47.360;18.984;2022-09-14T10:21:16;6.72;;;3.85;;
43817;SDS011;29868;47.360;18.984;2022-09-14T10:23:46;6.32;;;3.80;;
43817;SDS011;29868;47.360;18.984;2022-09-14T10:26:29;7.35;;;4.13;;
43817;SDS011;29868;47.360;18.984;2022-09-14T10:29:15;6.60;;;3.92;;
43817;SDS011;29868;47.360;18.984;2022-09-14T10:31:48;7.13;;;4.28;;
43817;SDS011;29868;47.360;18.984;2022-09-14T10:34:16;6.10;;;4.30;;
43817;SDS011;29868;47.360;18.984;2022-09-14T10:36:46;5.40;;;3.75;;
43817;SDS011;29868;47.360;18.984;2022-09-14T10:42:30;4.95;;;3.40;;
43817;SDS011;29868;47.360;18.984;2022-09-14T10:45:09;5.93;;;3.63;;
43817;SDS011;29868;47.360;18.984;2022-09-14T10:56:01;4.45;;;3.20;;
43817;SDS011;29868;47.360;18.984;2022-09-14T11:07:04;5.30;;;3.47;;
43817;SDS011;29868;47.360;18.984;2022-09-14T11:09:45;6.65;;;3.85;;
43817;SDS011;29868;47.360;18.984;2022-09-14T11:12:22;5.82;;;3.63;;
43817;SDS011;29868;47.360;18.984;2022-09-14T11:29:10;7.15;;;2.95;;
43817;SDS011;29868;47.360;18.984;2022-09-14T11:31:56;4.00;;;2.63;;
43817;SDS011;29868;47.360;18.984;2022-09-14T11:37:05;5.88;;;2.55;;
43817;SDS011;29868;47.360;18.984;2022-09-14T11:39:37;4.30;;;2.88;;
43817;SDS011;29868;47.360;18.984;2022-09-14T11:42:21;5.05;;;2.70;;
43817;SDS011;29868;47.360;18.984;2022-09-14T11:44:52;5.32;;;3.00;;
43817;SDS011;29868;47.360;18.984;2022-09-14T11:47:34;5.47;;;2.92;;
43817;SDS011;29868;47.360;18.984;2022-09-14T11:52:40;4.00;;;2.95;;
43817;SDS011;29868;47.360;18.984;2022-09-14T11:55:09;3.75;;;2.63;;
43817;SDS011;29868;47.360;18.984;2022-09-14T11:57:42;3.38;;;2.67;;
43817;SDS011;29868;47.360;18.984;2022-09-14T12:05:38;4.10;;;2.55;;
43817;SDS011;29868;47.360;18.984;2022-09-14T12:08:50;3.42;;;2.22;;
43817;SDS011;29868;47.360;18.984;2022-09-14T12:13:25;3.75;;;2.25;;
43817;SDS011;29868;47.360;18.984;2022-09-14T12:16:04;3.83;;;2.30;;
43817;SDS011;29868;47.360;18.984;2022-09-14T12:18:31;3.17;;;2.30;;
43817;SDS011;29868;47.360;18.984;2022-09-14T12:23:40;6.95;;;2.38;;
43817;SDS011;29868;47.360;18.984;2022-09-14T12:26:11;3.58;;;2.30;;
43817;SDS011;29868;47.360;18.984;2022-09-14T12:28:53;3.45;;;2.40;;
43817;SDS011;29868;47.360;18.984;2022-09-14T12:34:24;3.70;;;2.47;;
43817;SDS011;29868;47.360;18.984;2022-09-14T12:44:38;5.65;;;2.13;;
43817;SDS011;29868;47.360;18.984;2022-09-14T12:49:50;5.40;;;2.47;;
43817;SDS011;29868;47.360;18.984;2022-09-14T12:53:00;4.40;;;2.40;;
43817;SDS011;29868;47.360;18.984;2022-09-14T13:00:45;3.72;;;2.40;;
43817;SDS011;29868;47.360;18.984;2022-09-14T13:06:09;2.83;;;2.10;;
43817;SDS011;29868;47.360;18.984;2022-09-14T13:08:36;3.17;;;2.20;;
43817;SDS011;29868;47.360;18.984;2022-09-14T13:11:03;4.47;;;2.22;;
43817;SDS011;29868;47.360;18.984;2022-09-14T13:13:31;2.78;;;2.20;;
43817;SDS011;29868;47.360;18.984;2022-09-14T13:15:58;3.88;;;2.08;;
43817;SDS011;29868;47.360;18.984;2022-09-14T13:18:26;4.25;;;1.98;;
43817;SDS011;29868;47.360;18.984;2022-09-14T13:20:55;4.88;;;2.38;;
43817;SDS011;29868;47.360;18.984;2022-09-14T13:23:23;3.65;;;2.13;;
43817;SDS011;29868;47.360;18.984;2022-09-14T13:25:52;3.25;;;2.30;;
43817;SDS011;29868;47.360;18.984;2022-09-14T13:28:19;3.05;;;2.08;;
43817;SDS011;29868;47.360;18.984;2022-09-14T13:30:58;3.50;;;2.30;;
43817;SDS011;29868;47.360;18.984;2022-09-14T13:33:25;3.42;;;2.22;;
43817;SDS011;29868;47.360;18.984;2022-09-14T13:35:53;2.60;;;1.83;;
43817;SDS011;29868;47.360;18.984;2022-09-14T13:38:24;3.58;;;2.10;;
43817;SDS011;29868;47.360;18.984;2022-09-14T13:40:54;4.80;;;2.50;;
43817;SDS011;29868;47.360;18.984;2022-09-14T13:43:27;4.63;;;2.60;;
43817;SDS011;29868;47.360;18.984;2022-09-14T13:45:53;2.67;;;2.20;;
43817;SDS011;29868;47.360;18.984;2022-09-14T13:48:19;3.30;;;2.30;;
43817;SDS011;29868;47.360;18.984;2022-09-14T13:50:48;4.32;;;2.30;;
43817;SDS011;29868;47.360;18.984;2022-09-14T13:58:40;2.97;;;2.30;;
43817;SDS011;29868;47.360;18.984;2022-09-14T14:01:06;3.50;;;2.40;;
43817;SDS011;29868;47.360;18.984;2022-09-14T14:06:01;3.53;;;2.30;;
43817;SDS011;29868;47.360;18.984;2022-09-14T14:08:42;3.63;;;2.38;;
43817;SDS011;29868;47.360;18.984;2022-09-14T14:11:07;4.47;;;2.40;;
43817;SDS011;29868;47.360;18.984;2022-09-14T14:13:36;4.15;;;2.17;;
43817;SDS011;29868;47.360;18.984;2022-09-14T14:16:15;2.83;;;2.10;;
43817;SDS011;29868;47.360;18.984;2022-09-14T14:18:49;3.60;;;2.10;;
43817;SDS011;29868;47.360;18.984;2022-09-14T14:21:24;3.72;;;2.17;;
43817;SDS011;29868;47.360;18.984;2022-09-14T14:26:52;4.28;;;2.38;;
43817;SDS011;29868;47.360;18.984;2022-09-14T14:29:19;4.47;;;2.10;;
43817;SDS011;29868;47.360;18.984;2022-09-14T14:31:45;5.93;;;2.45;;
43817;SDS011;29868;47.360;18.984;2022-09-14T14:36:50;3.53;;;2.00;;
43817;SDS011;29868;47.360;18.984;2022-09-14T14:39:19;3.30;;;2.22;;
43817;SDS011;29868;47.360;18.984;2022-09-14T14:41:45;3.05;;;2.10;;
43817;SDS011;29868;47.360;18.984;2022-09-14T14:44:15;2.83;;;2.00;;
43817;SDS011;29868;47.360;18.984;2022-09-14T14:46:43;3.58;;;2.20;;
43817;SDS011;29868;47.360;18.984;2022-09-14T14:49:10;3.55;;;2.20;;
43817;SDS011;29868;47.360;18.984;2022-09-14T14:51:37;3.92;;;2.53;;
43817;SDS011;29868;47.360;18.984;2022-09-14T14:54:03;2.78;;;2.08;;
43817;SDS011;29868;47.360;18.984;2022-09-14T14:56:29;3.50;;;2.25;;
43817;SDS011;29868;47.360;18.984;2022-09-14T14:58:55;3.40;;;2.40;;
43817;SDS011;29868;47.360;18.984;2022-09-14T15:01:20;3.75;;;2.53;;
43817;SDS011;29868;47.360;18.984;2022-09-14T15:03:46;3.22;;;2.20;;
43817;SDS011;29868;47.360;18.984;2022-09-14T15:06:13;3.70;;;2.40;;
43817;SDS011;29868;47.360;18.984;2022-09-14T15:08:42;3.47;;;2.40;;
43817;SDS011;29868;47.360;18.984;2022-09-14T15:11:12;6.93;;;2.65;;
43817;SDS011;29868;47.360;18.984;2022-09-14T15:13:40;4.95;;;2.45;;
43817;SDS011;29868;47.360;18.984;2022-09-14T15:16:06;3.92;;;2.20;;
43817;SDS011;29868;47.360;18.984;2022-09-14T15:18:31;4.88;;;2.40;;
43817;SDS011;29868;47.360;18.984;2022-09-14T15:20:57;4.88;;;2.50;;
43817;SDS011;29868;47.360;18.984;2022-09-14T15:23:22;3.03;;;2.50;;
43817;SDS011;29868;47.360;18.984;2022-09-14T15:25:51;6.85;;;2.40;;
43817;SDS011;29868;47.360;18.984;2022-09-14T15:28:17;2.97;;;2.30;;
43817;SDS011;29868;47.360;18.984;2022-09-14T15:30:42;4.68;;;2.30;;
43817;SDS011;29868;47.360;18.984;2022-09-14T15:33:08;5.13;;;2.30;;
43817;SDS011;29868;47.360;18.984;2022-09-14T15:35:34;5.40;;;2.50;;
43817;SDS011;29868;47.360;18.984;2022-09-14T15:37:59;4.57;;;2.63;;
43817;SDS011;29868;47.360;18.984;2022-09-14T15:40:25;6.55;;;2.75;;
43817;SDS011;29868;47.360;18.984;2022-09-14T15:42:50;5.22;;;2.53;;
43817;SDS011;29868;47.360;18.984;2022-09-14T15:45:16;4.30;;;3.08;;
43817;SDS011;29868;47.360;18.984;2022-09-14T15:47:41;3.20;;;2.45;;
43817;SDS011;29868;47.360;18.984;2022-09-14T15:50:07;4.55;;;2.45;;
43817;SDS011;29868;47.360;18.984;2022-09-14T15:52:34;4.97;;;2.55;;
43817;SDS011;29868;47.360;18.984;2022-09-14T15:55:00;4.15;;;2.42;;
43817;SDS011;29868;47.360;18.984;2022-09-14T15:57:26;3.95;;;2.53;;
43817;SDS011;29868;47.360;18.984;2022-09-14T15:59:54;3.47;;;2.50;;
43817;SDS011;29868;47.360;18.984;2022-09-14T16:02:19;4.80;;;2.60;;
43817;SDS011;29868;47.360;18.984;2022-09-14T16:04:45;4.20;;;2.53;;
43817;SDS011;29868;47.360;18.984;2022-09-14T16:07:10;4.70;;;2.70;;
43817;SDS011;29868;47.360;18.984;2022-09-14T16:09:39;5.00;;;2.72;;
43817;SDS011;29868;47.360;18.984;2022-09-14T16:12:06;6.20;;;2.70;;
43817;SDS011;29868;47.360;18.984;2022-09-14T16:14:32;4.22;;;2.58;;
43817;SDS011;29868;47.360;18.984;2022-09-14T16:16:58;7.88;;;2.90;;
43817;SDS011;29868;47.360;18.984;2022-09-14T16:19:24;5.60;;;3.15;;
43817;SDS011;29868;47.360;18.984;2022-09-14T16:21:49;8.52;;;3.08;;
43817;SDS011;29868;47.360;18.984;2022-09-14T16:24:15;7.13;;;3.53;;
43817;SDS011;29868;47.360;18.984;2022-09-14T16:26:43;6.93;;;3.40;;
43817;SDS011;29868;47.360;18.984;2022-09-14T16:29:10;5.60;;;3.22;;
43817;SDS011;29868;47.360;18.984;2022-09-14T16:31:38;5.97;;;3.45;;
43817;SDS011;29868;47.360;18.984;2022-09-14T16:34:10;6.60;;;3.30;;
43817;SDS011;29868;47.360;18.984;2022-09-14T16:36:39;4.07;;;3.22;;
43817;SDS011;29868;47.360;18.984;2022-09-14T16:39:06;6.20;;;2.97;;
43817;SDS011;29868;47.360;18.984;2022-09-14T16:41:33;5.88;;;3.47;;
43817;SDS011;29868;47.360;18.984;2022-09-14T16:44:01;5.38;;;3.67;;
43817;SDS011;29868;47.360;18.984;2022-09-14T16:46:28;6.22;;;3.85;;
43817;SDS011;29868;47.360;18.984;2022-09-14T16:48:54;6.45;;;3.30;;
43817;SDS011;29868;47.360;18.984;2022-09-14T16:51:24;5.32;;;3.20;;
43817;SDS011;29868;47.360;18.984;2022-09-14T16:53:51;6.22;;;3.33;;
43817;SDS011;29868;47.360;18.984;2022-09-14T16:56:18;7.85;;;3.17;;
43817;SDS011;29868;47.360;18.984;2022-09-14T16:58:45;5.50;;;3.47;;